Time;durP1;ratioP1;P1;durP2;ratioP2;P2;SDS_P1;SDS_P2;PMS_P1;PMS_P2;Temp;Humidity;BMP_temperature;BMP_pressure;BME280_temperature;BME280_humidity;BME280_pressure;Samples;Min_cycle;Max_cycle;Signal;HPM_P1;HPM_P2
2022/12/05 00:00:52;;;;;;;12.67;6.10;;;;;;;-5.09;64.96;102319.55;1715961;83;21602;-65
2022/12/05 00:03:20;;;;;;;15.13;4.50;;;;;;;-5.21;65.12;102318.39;1713423;82;21069;-66
2022/12/05 00:05:47;;;;;;;10.63;5.87;;;;;;;-5.55;65.35;102316.27;1706736;83;21591;-66
2022/12/05 00:08:14;;;;;;;12.37;5.67;;;;;;;-5.51;65.62;102314.80;1719667;82;21215;-65
2022/12/05 00:10:41;;;;;;;11.87;5.27;;;;;;;-5.59;66.30;102315.98;1708037;82;21096;-66
2022/12/05 00:13:09;;;;;;;14.47;5.57;;;;;;;-5.72;66.46;102322.91;1710833;82;21085;-66
2022/12/05 00:15:39;;;;;;;14.43;5.27;;;;;;;-5.59;66.02;102324.97;1676465;84;21061;-65
2022/12/05 00:18:05;;;;;;;15.90;5.33;;;;;;;-5.69;67.49;102333.77;1671867;84;21100;-65
2022/12/05 00:20:32;;;;;;;14.83;5.40;;;;;;;-5.77;67.79;102325.59;1677545;84;21258;-66
2022/12/05 00:22:59;;;;;;;15.30;5.17;;;;;;;-5.69;67.70;102329.92;1676772;84;21307;-66
2022/12/05 00:25:27;;;;;;;16.70;6.00;;;;;;;-5.57;67.81;102323.39;1686998;83;21094;-66
2022/12/05 00:27:54;;;;;;;14.50;5.13;;;;;;;-5.53;68.70;102326.66;1708865;82;21009;-66
2022/12/05 00:30:20;;;;;;;21.13;6.50;;;;;;;-5.55;68.94;102338.50;1708360;82;21060;-65
2022/12/05 00:32:46;;;;;;;18.17;6.10;;;;;;;-5.48;67.89;102323.97;1718118;82;21196;-65
2022/12/05 00:35:13;;;;;;;16.43;5.37;;;;;;;-5.17;68.07;102328.08;1680115;84;21678;-66
2022/12/05 00:37:39;;;;;;;10.87;4.63;;;;;;;-5.04;66.37;102322.40;1720154;82;21153;-66
2022/12/05 00:40:07;;;;;;;12.83;5.33;;;;;;;-5.21;66.63;102324.81;1720681;82;21153;-67
2022/12/05 00:42:34;;;;;;;16.23;5.90;;;;;;;-5.02;67.05;102315.27;1705154;82;21033;-67
2022/12/05 00:45:01;;;;;;;15.37;5.40;;;;;;;-4.88;65.66;102311.88;1707237;82;21150;-65
2022/12/05 00:47:27;;;;;;;14.47;5.93;;;;;;;-5.08;65.16;102308.49;1712173;82;21541;-65
2022/12/05 00:49:54;;;;;;;15.73;5.33;;;;;;;-5.74;66.19;102315.91;1716009;83;21030;-66
2022/12/05 00:52:20;;;;;;;8.77;4.67;;;;;;;-6.02;68.09;102318.41;1720983;82;21033;-65
2022/12/05 00:54:46;;;;;;;11.73;5.43;;;;;;;-6.15;67.90;102309.02;1704284;83;21073;-65
2022/12/05 00:57:14;;;;;;;12.63;5.23;;;;;;;-6.06;67.78;102311.30;1707503;82;21219;-66
2022/12/05 00:59:41;;;;;;;11.73;4.73;;;;;;;-6.59;69.05;102309.12;1710448;82;21588;-65
2022/12/05 01:02:07;;;;;;;9.93;4.37;;;;;;;-6.73;70.06;102303.86;1703681;83;21704;-65
2022/12/05 01:04:34;;;;;;;10.50;5.03;;;;;;;-6.64;70.86;102305.77;1706403;83;21073;-64
2022/12/05 01:07:01;;;;;;;12.27;4.93;;;;;;;-6.67;71.46;102302.97;1714291;82;21014;-66
2022/12/05 01:09:27;;;;;;;9.93;4.90;;;;;;;-6.81;72.46;102295.27;1723838;82;21704;-66
2022/12/05 01:11:55;;;;;;;16.03;6.43;;;;;;;-6.79;72.70;102303.03;1722156;82;21071;-65
2022/12/05 01:14:23;;;;;;;9.70;5.50;;;;;;;-6.54;72.36;102296.21;1676414;84;21604;-66
2022/12/05 01:16:51;;;;;;;15.80;5.90;;;;;;;-6.76;73.24;102295.58;1712505;82;21112;-65
2022/12/05 01:19:23;;;;;;;12.30;5.70;;;;;;;-6.61;72.84;102290.58;1710606;82;21084;-66
2022/12/05 01:21:50;;;;;;;15.63;5.50;;;;;;;-6.52;72.89;102299.28;1706558;82;21163;-64
2022/12/05 01:24:17;;;;;;;13.47;5.40;;;;;;;-6.70;72.64;102290.84;1704809;83;21589;-67
2022/12/05 01:26:44;;;;;;;13.77;4.73;;;;;;;-6.71;72.81;102290.36;1712791;82;21047;-66
2022/12/05 01:29:12;;;;;;;13.97;5.70;;;;;;;-6.58;71.93;102285.28;1712157;82;21086;-67
2022/12/05 01:31:38;;;;;;;11.43;6.10;;;;;;;-6.36;71.04;102275.16;1717933;82;21616;-65
2022/12/05 01:34:07;;;;;;;15.97;6.57;;;;;;;-6.27;70.29;102273.59;1712005;82;21863;-66
2022/12/05 01:36:34;;;;;;;14.67;6.17;;;;;;;-6.72;71.24;102271.91;1710830;82;21084;-65
2022/12/05 01:39:00;;;;;;;14.23;6.47;;;;;;;-6.97;72.83;102262.59;1693563;82;21137;-64
2022/12/05 01:41:36;;;;;;;14.43;6.00;;;;;;;-6.92;73.04;102261.63;1717720;82;21166;-66
2022/12/05 01:44:11;;;;;;;26.07;8.93;;;;;;;-6.66;72.44;102256.95;1712540;82;21064;-65
2022/12/05 01:46:47;;;;;;;12.80;5.50;;;;;;;-6.55;73.36;102257.28;1719488;82;21227;-66
2022/12/05 01:49:28;;;;;;;14.70;5.73;;;;;;;-6.58;72.86;102260.93;1714573;82;21187;-67
2022/12/05 01:51:59;;;;;;;13.87;6.50;;;;;;;-6.45;74.14;102257.48;1707946;82;21114;-66
2022/12/05 01:54:27;;;;;;;18.17;5.57;;;;;;;-6.53;74.15;102257.39;1717459;82;21161;-65
2022/12/05 01:56:58;;;;;;;15.37;5.10;;;;;;;-6.16;72.62;102254.67;1720775;82;21258;-66
2022/12/05 01:59:25;;;;;;;10.03;4.87;;;;;;;-6.39;73.20;102244.20;1703750;82;21600;-65
2022/12/05 02:01:51;;;;;;;27.43;9.47;;;;;;;-6.46;72.46;102244.59;1706887;82;21105;-65
2022/12/05 02:04:18;;;;;;;13.13;5.90;;;;;;;-6.30;73.38;102249.02;1723573;82;21071;-68
2022/12/05 02:06:44;;;;;;;20.80;6.03;;;;;;;-6.29;72.24;102249.12;1710542;82;21042;-66
2022/12/05 02:09:11;;;;;;;17.70;7.23;;;;;;;-6.51;72.42;102251.06;1704917;83;20985;-66
2022/12/05 02:11:57;;;;;;;13.47;6.30;;;;;;;-6.28;72.45;102255.13;1711689;82;21082;-66
2022/12/05 02:15:00;;;;;;;18.10;5.67;;;;;;;-6.50;71.72;102242.60;1717258;82;21090;-66
2022/12/05 02:17:55;;;;;;;11.60;5.40;;;;;;;-6.59;71.66;102256.57;1714437;82;21030;-66
2022/12/05 02:20:49;;;;;;;14.57;6.27;;;;;;;-6.42;71.25;102257.71;1707994;82;21094;-67
2022/12/05 02:23:40;;;;;;;12.40;5.50;;;;;;;-6.54;72.47;102257.76;1707078;82;21121;-67
2022/12/05 02:26:12;;;;;;;12.35;5.15;;;;;;;-6.68;72.44;102253.40;1714434;82;21771;-67
2022/12/05 02:29:14;;;;;;;12.60;5.47;;;;;;;-6.89;73.59;102248.13;1694882;83;21037;-66
2022/12/05 02:32:16;;;;;;;14.80;6.30;;;;;;;-6.79;73.98;102251.78;1723388;82;21066;-66
2022/12/05 02:34:57;;;;;;;12.23;5.20;;;;;;;-6.92;74.19;102247.90;1712773;82;21653;-65
2022/12/05 02:37:27;;;;;;;13.90;5.63;;;;;;;-6.92;74.14;102238.56;1702982;83;21599;-68
2022/12/05 02:40:09;;;;;;;20.77;6.40;;;;;;;-6.79;74.05;102250.11;1721196;82;21850;-66
2022/12/05 02:42:50;;;;;;;12.97;4.47;;;;;;;-6.46;73.39;102259.97;1711323;82;21095;-65
2022/12/05 02:45:17;;;;;;;14.67;5.73;;;;;;;-6.56;72.97;102259.36;1703832;83;21105;-67
2022/12/05 02:47:48;;;;;;;12.40;4.60;;;;;;;-6.56;73.15;102254.23;1719597;82;21068;-66
2022/12/05 02:50:20;;;;;;;16.87;7.00;;;;;;;-6.35;73.38;102256.41;1705623;82;21077;-66
2022/12/05 02:52:48;;;;;;;15.20;6.13;;;;;;;-6.20;72.84;102259.98;1704178;82;21161;-66
2022/12/05 02:55:15;;;;;;;17.07;6.93;;;;;;;-6.21;72.00;102254.38;1718917;82;21103;-66
2022/12/05 02:57:44;;;;;;;22.00;6.90;;;;;;;-6.19;71.81;102259.58;1713088;82;21130;-66
2022/12/05 03:00:12;;;;;;;13.57;6.07;;;;;;;-6.25;71.78;102254.95;1691164;83;21093;-68
2022/12/05 03:02:39;;;;;;;21.23;7.90;;;;;;;-6.41;71.82;102254.34;1672936;84;21181;-65
2022/12/05 03:05:35;;;;;;;17.50;5.80;;;;;;;-6.47;72.77;102251.77;1664750;86;21504;-65
2022/12/05 03:08:02;;;;;;;16.03;5.73;;;;;;;-6.27;71.90;102256.92;1734549;81;21526;-65
2022/12/05 03:10:30;;;;;;;18.07;6.00;;;;;;;-6.50;72.22;102251.17;1705338;82;21050;-67
2022/12/05 03:13:08;;;;;;;11.07;5.40;;;;;;;-6.43;72.76;102258.48;1711182;80;21580;-65
2022/12/05 03:15:41;;;;;;;19.17;5.90;;;;;;;-6.36;72.63;102257.21;1700151;82;21057;-66
2022/12/05 03:18:19;;;;;;;11.17;4.97;;;;;;;-6.62;73.96;102260.23;1689407;82;21127;-66
2022/12/05 03:20:48;;;;;;;13.17;5.77;;;;;;;-6.56;74.17;102267.05;1709792;82;21054;-66
2022/12/05 03:23:30;;;;;;;12.65;5.50;;;;;;;-6.25;73.72;102256.23;1719804;82;21083;-66
2022/12/05 03:26:19;;;;;;;16.33;6.37;;;;;;;-6.09;73.79;102263.66;1717517;82;21634;-66
2022/12/05 03:29:03;;;;;;;13.67;5.43;;;;;;;-6.05;73.10;102252.41;1699534;82;21069;-67
2022/12/05 03:31:50;;;;;;;16.53;5.37;;;;;;;-5.86;73.15;102250.58;1679995;83;21661;-67
2022/12/05 03:34:26;;;;;;;12.57;5.13;;;;;;;-5.62;72.31;102254.19;1656407;85;21538;-65
2022/12/05 03:36:52;;;;;;;12.77;5.53;;;;;;;-6.13;74.37;102252.29;1696764;82;21049;-67
2022/12/05 03:39:26;;;;;;;20.67;5.70;;;;;;;-5.58;72.52;102246.77;1691400;84;21038;-67
2022/12/05 03:42:12;;;;;;;11.40;5.17;;;;;;;-5.28;70.85;102252.91;1687832;83;21547;-66
2022/12/05 03:45:05;;;;;;;11.17;5.03;;;;;;;-5.62;70.85;102242.64;1694186;83;21313;-67
2022/12/05 03:47:50;;;;;;;13.73;6.17;;;;;;;-5.68;70.36;102248.30;1703786;82;21123;-66
2022/12/05 03:50:24;;;;;;;13.67;5.60;;;;;;;-5.69;70.14;102255.48;1695046;83;21104;-67
2022/12/05 03:53:04;;;;;;;11.80;5.53;;;;;;;-5.99;70.78;102255.75;1697548;83;21262;-66
2022/12/05 03:55:34;;;;;;;13.10;5.97;;;;;;;-6.24;71.56;102262.25;1690440;84;21069;-65
2022/12/05 03:58:10;;;;;;;15.17;5.70;;;;;;;-6.25;72.38;102264.33;1686027;83;21191;-66
2022/12/05 04:00:41;;;;;;;10.43;5.47;;;;;;;-6.43;73.10;102266.17;1686261;83;21034;-66
2022/12/05 04:03:21;;;;;;;14.87;6.00;;;;;;;-6.50;73.80;102263.98;1696945;83;21608;-67
2022/12/05 04:05:58;;;;;;;17.12;6.42;;;;;;;-6.45;73.62;102251.48;1692076;83;21180;-64
2022/12/05 05:43:18;;;;;;;15.23;6.77;;;;;;;-7.64;95.63;102241.27;1840757;77;22871;-65
2022/12/05 05:45:45;;;;;;;16.73;7.13;;;;;;;-7.62;93.79;102239.31;1828548;77;20953;-65
2022/12/05 05:48:11;;;;;;;16.83;7.13;;;;;;;-7.33;90.84;102234.47;1828387;78;22099;-67
2022/12/05 05:50:38;;;;;;;14.30;7.13;;;;;;;-7.25;89.89;102237.14;1828450;78;21625;-66
2022/12/05 05:53:06;;;;;;;17.97;6.57;;;;;;;-7.23;88.29;102244.54;1828048;78;20992;-66
2022/12/05 05:55:33;;;;;;;18.13;7.13;;;;;;;-7.19;88.18;102246.53;1828348;78;20921;-65
2022/12/05 05:58:00;;;;;;;20.77;7.27;;;;;;;-7.31;88.19;102250.82;1828319;78;21131;-65
2022/12/05 06:00:26;;;;;;;13.73;6.57;;;;;;;-7.20;88.59;102254.98;1828400;78;21206;-64
2022/12/05 06:02:53;;;;;;;15.50;6.73;;;;;;;-6.99;88.10;102258.15;1828331;78;21450;-65
2022/12/05 06:05:20;;;;;;;24.13;7.33;;;;;;;-6.96;86.36;102257.95;1828277;78;21091;-67
2022/12/05 06:07:47;;;;;;;17.77;7.83;;;;;;;-7.02;85.67;102254.08;1828509;78;20997;-66
2022/12/05 06:10:14;;;;;;;13.70;6.70;;;;;;;-7.17;85.60;102253.94;1828251;78;21056;-65
2022/12/05 06:12:41;;;;;;;38.57;12.73;;;;;;;-7.08;84.74;102254.97;1828381;78;21130;-65
2022/12/05 06:15:09;;;;;;;26.80;10.10;;;;;;;-6.73;84.39;102250.93;1828541;78;21053;-65
2022/12/05 06:17:35;;;;;;;58.67;15.37;;;;;;;-6.82;84.27;102247.75;1828488;78;20982;-65
2022/12/05 06:20:02;;;;;;;21.53;8.10;;;;;;;-6.67;83.51;102245.31;1828548;78;21119;-66
2022/12/05 06:22:29;;;;;;;21.57;7.97;;;;;;;-6.44;83.48;102242.98;1828632;78;21075;-65
2022/12/05 06:24:55;;;;;;;22.43;8.10;;;;;;;-6.71;82.71;102248.08;1828429;78;21916;-66
2022/12/05 06:27:22;;;;;;;81.40;18.43;;;;;;;-6.51;81.70;102245.94;1828388;78;21524;-65
2022/12/05 06:29:48;;;;;;;47.07;13.30;;;;;;;-6.54;81.51;102235.97;1828596;78;21646;-65
2022/12/05 06:32:14;;;;;;;20.27;7.83;;;;;;;-6.52;82.05;102236.48;1827749;78;21528;-66
2022/12/05 06:34:41;;;;;;;18.57;7.47;;;;;;;-6.49;82.39;102231.14;1821505;78;21055;-65
2022/12/05 06:37:07;;;;;;;28.00;9.80;;;;;;;-6.31;81.25;102230.59;1822096;78;21166;-67
2022/12/05 06:39:33;;;;;;;15.47;7.27;;;;;;;-6.36;80.62;102229.88;1821232;78;21309;-66
2022/12/05 06:42:00;;;;;;;14.43;6.67;;;;;;;-6.29;80.39;102235.42;1821561;78;21027;-65
2022/12/05 06:44:27;;;;;;;19.73;7.50;;;;;;;-6.41;80.17;102238.08;1820929;78;21122;-66
2022/12/05 06:46:54;;;;;;;19.83;8.63;;;;;;;-6.27;80.06;102237.30;1820762;78;21689;-66
2022/12/05 06:49:25;;;;;;;29.43;10.30;;;;;;;-6.17;79.88;102233.23;1820880;78;21140;-65
2022/12/05 06:51:52;;;;;;;24.33;8.40;;;;;;;-6.17;79.56;102233.23;1821573;78;21039;-65
2022/12/05 06:54:19;;;;;;;19.90;9.20;;;;;;;-6.17;79.56;102233.23;1821167;78;21100;-65
2022/12/05 06:56:45;;;;;;;23.37;10.13;;;;;;;-6.39;80.02;102238.67;1821187;78;21542;-67
2022/12/05 06:59:12;;;;;;;31.90;11.77;;;;;;;-6.24;80.35;102245.17;1820998;78;21708;-65
2022/12/05 07:01:45;;;;;;;28.00;11.10;;;;;;;-6.19;80.11;102246.39;1820829;78;21119;-66
2022/12/05 07:04:19;;;;;;;21.17;9.10;;;;;;;-6.24;81.32;102240.05;1819805;78;21111;-66
2022/12/05 07:06:48;;;;;;;21.77;8.90;;;;;;;-5.92;83.17;102247.20;1821058;78;21063;-66
2022/12/05 07:09:14;;;;;;;19.83;8.50;;;;;;;-5.71;81.64;102236.13;1821033;78;21040;-65
2022/12/05 07:11:40;;;;;;;18.17;8.30;;;;;;;-5.72;78.38;102246.31;1820788;78;21068;-66
2022/12/05 07:14:08;;;;;;;19.80;8.00;;;;;;;-5.63;78.43;102245.61;1821509;78;21226;-66
2022/12/05 07:16:35;;;;;;;22.77;9.30;;;;;;;-5.61;78.75;102240.55;1820873;78;21027;-66
2022/12/05 07:19:02;;;;;;;19.87;8.20;;;;;;;-5.82;78.91;102247.42;1821070;78;21071;-65
2022/12/05 07:21:29;;;;;;;12.27;5.77;;;;;;;-5.73;78.41;102240.30;1821178;78;21099;-66
2022/12/05 07:23:56;;;;;;;13.70;7.33;;;;;;;-5.82;78.29;102238.44;1821167;78;21126;-67
2022/12/05 07:26:23;;;;;;;14.93;7.00;;;;;;;-5.53;77.69;102245.78;1821113;78;21170;-65
2022/12/05 07:28:50;;;;;;;16.10;8.40;;;;;;;-5.67;78.18;102242.75;1820966;78;21008;-66
2022/12/05 07:31:20;;;;;;;20.00;9.17;;;;;;;-5.63;77.98;102237.03;1820989;78;21019;-66
2022/12/05 07:33:49;;;;;;;15.37;8.03;;;;;;;-5.69;77.81;102243.53;1820769;78;21051;-66
2022/12/05 07:36:19;;;;;;;16.83;7.30;;;;;;;-5.42;77.89;102238.34;1821241;78;21027;-66
2022/12/05 07:38:45;;;;;;;19.37;7.78;;;;;;;-5.52;77.77;102237.27;1821316;78;21978;-66
2022/12/05 07:41:18;;;;;;;59.67;17.50;;;;;;;-5.50;77.99;102233.12;1820957;78;21032;-67
2022/12/05 07:43:45;;;;;;;33.97;9.83;;;;;;;-5.34;79.06;102218.26;1821136;78;21530;-65
2022/12/05 07:46:11;;;;;;;18.60;7.97;;;;;;;-5.17;76.60;102223.16;1820983;78;21056;-66
2022/12/05 07:48:38;;;;;;;24.50;8.87;;;;;;;-5.41;77.55;102217.39;1821404;78;20989;-66
2022/12/05 07:51:07;;;;;;;18.00;7.20;;;;;;;-5.40;78.52;102211.08;1821138;78;21288;-66
2022/12/05 07:53:33;;;;;;;38.67;10.83;;;;;;;-5.23;77.62;102212.09;1821241;78;20985;-67
2022/12/05 07:56:01;;;;;;;30.73;9.77;;;;;;;-5.02;75.79;102217.63;1821062;78;21075;-66
2022/12/05 07:58:28;;;;;;;35.53;10.90;;;;;;;-5.10;75.49;102210.75;1821571;78;21048;-66
2022/12/05 08:00:56;;;;;;;23.23;9.40;;;;;;;-4.94;75.99;102206.13;1821156;78;21070;-67
2022/12/05 08:03:22;;;;;;;29.50;10.87;;;;;;;-4.78;75.97;102209.61;1820945;78;21635;-66
2022/12/05 08:05:49;;;;;;;17.53;7.53;;;;;;;-5.13;75.52;102205.81;1821026;78;21614;-66
2022/12/05 08:08:15;;;;;;;20.13;8.50;;;;;;;-4.98;74.61;102217.02;1820975;78;21843;-66
2022/12/05 08:10:42;;;;;;;26.93;9.47;;;;;;;-5.08;74.41;102212.14;1820598;78;21083;-68
2022/12/05 08:13:08;;;;;;;22.17;9.00;;;;;;;-4.69;74.00;102203.72;1821009;78;21164;-66
2022/12/05 08:15:35;;;;;;;21.77;7.57;;;;;;;-5.22;75.38;102215.54;1789497;78;21236;-66
2022/12/05 08:18:02;;;;;;;26.97;9.57;;;;;;;-5.22;75.46;102218.11;1788746;80;21591;-66
2022/12/05 08:20:29;;;;;;;29.90;10.57;;;;;;;-4.87;76.26;102207.38;1788840;80;21782;-66
2022/12/05 08:22:57;;;;;;;32.93;8.67;;;;;;;-4.79;74.84;102216.82;1788727;80;21095;-66
2022/12/05 08:25:23;;;;;;;51.40;12.80;;;;;;;-5.02;74.99;102209.91;1789052;80;21071;-66
2022/12/05 08:27:50;;;;;;;68.07;16.83;;;;;;;-4.99;75.36;102207.55;1788716;80;21204;-67
2022/12/05 08:30:17;;;;;;;62.40;16.57;;;;;;;-5.04;75.16;102201.23;1788488;79;21032;-66
2022/12/05 08:32:44;;;;;;;32.40;11.17;;;;;;;-5.18;76.13;102204.66;1788483;80;21055;-66
2022/12/05 08:35:11;;;;;;;21.57;8.73;;;;;;;-5.01;76.70;102207.86;1788598;80;21032;-66
2022/12/05 08:37:37;;;;;;;51.97;15.70;;;;;;;-4.88;76.81;102215.50;1788813;80;21020;-66
2022/12/05 08:40:05;;;;;;;50.47;15.43;;;;;;;-4.67;75.07;102202.09;1788485;79;21202;-66
2022/12/05 08:42:32;;;;;;;19.07;8.23;;;;;;;-4.89;75.57;102194.43;1789690;79;21094;-66
2022/12/05 08:44:59;;;;;;;17.97;8.13;;;;;;;-5.04;76.08;102194.80;1812641;78;21043;-66
2022/12/05 08:47:25;;;;;;;33.73;11.47;;;;;;;-4.70;74.91;102193.81;1824938;78;21000;-66
2022/12/05 08:49:52;;;;;;;18.53;8.00;;;;;;;-4.62;74.41;102188.22;1824623;78;21071;-67
2022/12/05 08:52:20;;;;;;;20.53;8.97;;;;;;;-4.78;74.43;102182.63;1824717;78;21281;-66
2022/12/05 08:54:47;;;;;;;23.80;9.40;;;;;;;-4.75;74.69;102184.08;1824542;78;21575;-66
2022/12/05 08:57:13;;;;;;;26.97;7.57;;;;;;;-4.65;74.86;102181.22;1824881;78;21134;-67
2022/12/05 08:59:40;;;;;;;22.67;9.40;;;;;;;-4.94;75.19;102182.13;1824632;78;21416;-67
2022/12/05 09:02:09;;;;;;;26.13;10.83;;;;;;;-5.07;75.77;102172.80;1824677;78;21027;-66
2022/12/05 09:04:35;;;;;;;26.93;10.93;;;;;;;-4.88;76.33;102165.38;1799696;78;21120;-66
2022/12/05 09:07:02;;;;;;;30.03;11.20;;;;;;;-4.67;76.56;102165.73;1824746;78;21106;-66
2022/12/05 09:09:31;;;;;;;21.63;9.37;;;;;;;-4.89;76.62;102159.73;1824930;78;21527;-66
2022/12/05 09:11:59;;;;;;;19.03;9.00;;;;;;;-4.83;76.99;102149.31;1824828;78;21031;-67
2022/12/05 09:14:31;;;;;;;13.20;6.33;;;;;;;-4.50;77.76;102151.25;1825182;78;21024;-66
2022/12/05 09:16:54;;;;;;;34.87;11.67;;;;;;;-4.60;75.50;102151.55;1823972;78;21854;-67
2022/12/05 09:19:22;;;;;;;74.90;17.73;;;;;;;-4.53;75.58;102143.38;1825443;78;21019;-66
2022/12/05 09:21:49;;;;;;;32.00;10.67;;;;;;;-4.45;75.79;102145.08;1824746;78;21100;-65
2022/12/05 09:24:15;;;;;;;23.07;8.97;;;;;;;-4.53;75.68;102143.75;1824693;78;21064;-67
2022/12/05 09:26:41;;;;;;;35.13;11.77;;;;;;;-4.47;75.87;102138.55;1824939;78;21046;-65
2022/12/05 09:29:09;;;;;;;35.60;11.10;;;;;;;-4.31;75.01;102139.42;1824684;78;21761;-66
2022/12/05 09:31:36;;;;;;;21.60;9.27;;;;;;;-4.21;75.32;102132.68;1824791;78;21075;-66
2022/12/05 09:34:02;;;;;;;27.23;11.27;;;;;;;-3.96;75.08;102130.17;1824674;78;21043;-66
2022/12/05 09:36:30;;;;;;;16.37;8.97;;;;;;;-3.79;75.32;102131.97;1824627;78;21090;-65
2022/12/05 09:39:00;;;;;;;14.13;7.33;;;;;;;-3.81;74.11;102130.59;1824602;78;21091;-66
2022/12/05 09:42:04;;;;;;;18.73;8.43;;;;;;;-3.86;73.45;102135.03;1825032;78;21602;-66
2022/12/05 09:44:57;;;;;;;18.97;8.50;;;;;;;-3.69;72.70;102126.49;1824567;78;21035;-66
2022/12/05 09:47:44;;;;;;;24.63;8.83;;;;;;;-3.87;73.35;102121.66;1825141;78;21012;-65
2022/12/05 09:50:24;;;;;;;19.27;7.20;;;;;;;-3.57;73.64;102126.25;1824553;78;21126;-66
2022/12/05 09:53:10;;;;;;;25.90;9.18;;;;;;;-3.46;74.49;102117.39;1825280;78;21174;-66
2022/12/05 09:56:10;;;;;;;18.40;8.97;;;;;;;-3.44;73.03;102120.06;1824801;78;21132;-66
2022/12/05 09:58:49;;;;;;;20.17;8.10;;;;;;;-3.38;72.79;102122.55;1825010;78;21051;-66
2022/12/05 10:01:44;;;;;;;36.10;10.53;;;;;;;-3.45;72.29;102114.41;1824635;78;21067;-66
2022/12/05 10:04:54;;;;;;;21.07;8.17;;;;;;;-3.29;72.28;102117.38;1824793;78;21083;-65
2022/12/05 10:07:41;;;;;;;20.10;6.73;;;;;;;-3.24;71.42;102119.39;1824789;78;21091;-66
2022/12/05 10:10:55;;;;;;;30.53;10.43;;;;;;;-3.40;70.99;102114.27;1824604;78;22242;-66
2022/12/05 10:13:28;;;;;;;23.47;9.90;;;;;;;-3.68;72.42;102112.83;1822985;78;21166;-65
2022/12/05 10:16:00;;;;;;;28.10;10.33;;;;;;;-3.62;72.58;102113.54;1792149;80;21134;-66
2022/12/05 10:18:55;;;;;;;23.47;9.13;;;;;;;-3.34;72.65;102108.53;1792352;80;21051;-66
2022/12/05 10:21:57;;;;;;;34.47;12.30;;;;;;;-3.12;71.24;102101.49;1791653;79;21050;-67
2022/12/05 10:24:33;;;;;;;26.67;9.07;;;;;;;-3.20;71.64;102098.13;1792457;79;21163;-65
2022/12/05 10:27:03;;;;;;;53.80;16.73;;;;;;;-3.25;71.62;102107.30;1789786;80;21067;-66
2022/12/05 10:29:39;;;;;;;;;;;;;;;-2.99;70.61;102099.61;1794893;80;21040;-66
2022/12/05 10:32:21;;;;;;;32.63;11.03;;;;;;;-2.97;70.59;102095.80;1792505;80;20201;-67
2022/12/05 10:34:50;;;;;;;20.87;9.00;;;;;;;-3.07;71.94;102096.16;1763696;80;21080;-65
2022/12/05 10:37:23;;;;;;;25.00;10.03;;;;;;;-3.30;71.94;102098.45;1792402;80;21238;-66
2022/12/05 10:39:49;;;;;;;29.20;10.53;;;;;;;-3.16;72.33;102089.72;1792256;80;21047;-66
2022/12/05 10:42:24;;;;;;;19.63;7.40;;;;;;;-2.87;71.77;102097.16;1792628;79;21024;-66
2022/12/05 10:44:56;;;;;;;29.63;10.87;;;;;;;-3.32;71.46;102092.33;1788927;79;21028;-68
2022/12/05 10:47:22;;;;;;;40.23;14.13;;;;;;;-3.39;72.91;102090.26;1788974;80;21083;-66
2022/12/05 10:49:49;;;;;;;27.70;11.63;;;;;;;-3.38;72.71;102087.77;1788785;80;21226;-66
2022/12/05 10:52:15;;;;;;;35.90;10.33;;;;;;;-3.31;73.26;102082.91;1788634;80;21040;-66
2022/12/05 10:54:46;;;;;;;37.33;13.17;;;;;;;-3.07;72.93;102083.27;1788937;80;21107;-66
2022/12/05 10:57:26;;;;;;;26.53;9.87;;;;;;;-3.06;72.28;102078.20;1788586;80;21123;-66
2022/12/05 10:59:55;;;;;;;30.45;11.48;;;;;;;-3.32;73.16;102075.59;1788366;80;21577;-67
2022/12/05 11:02:31;;;;;;;24.20;9.67;;;;;;;-2.94;72.15;102063.73;1788765;80;21222;-66
2022/12/05 11:04:58;;;;;;;28.67;10.00;;;;;;;-2.93;71.76;102065.91;1788900;80;21079;-66
2022/12/05 11:07:44;;;;;;;21.80;9.70;;;;;;;-2.57;73.04;102066.80;1788454;79;21535;-66
2022/12/05 11:10:23;;;;;;;50.50;17.70;;;;;;;-2.23;70.92;102058.03;1788599;80;21083;-67
2022/12/05 11:12:50;;;;;;;53.67;18.40;;;;;;;-2.02;67.89;102062.90;1788505;80;21043;-67
2022/12/05 11:15:23;;;;;;;47.58;16.35;;;;;;;-1.90;67.58;102054.40;1815868;78;21123;-66
2022/12/05 11:17:50;;;;;;;42.45;18.35;;;;;;;-2.09;68.93;102056.98;1821612;78;21587;-68
2022/12/05 11:20:23;;;;;;;50.03;18.77;;;;;;;-1.91;67.35;102051.36;1821104;78;21067;-66
2022/12/05 11:22:55;;;;;;;51.28;15.40;;;;;;;-2.25;66.74;102057.10;1821235;78;21056;-66
2022/12/05 11:25:32;;;;;;;28.67;11.57;;;;;;;-2.25;66.41;102057.10;1821026;78;21547;-65
2022/12/05 11:28:18;;;;;;;28.07;10.17;;;;;;;-2.44;67.32;102050.18;1820883;78;21146;-66
2022/12/05 11:31:17;;;;;;;38.02;12.75;;;;;;;-2.44;67.96;102038.19;1805866;78;21527;-67
2022/12/05 11:33:43;;;;;;;69.43;20.03;;;;;;;-1.67;67.43;102027.41;1821030;78;21677;-66
2022/12/05 11:36:21;;;;;;;42.60;13.65;;;;;;;-0.99;65.92;102019.87;1740565;78;21032;-67
2022/12/05 11:38:48;;;;;;;55.33;13.60;;;;;;;-0.25;63.45;102022.35;1821023;78;21044;-66
2022/12/05 11:41:42;;;;;;;34.65;12.78;;;;;;;0.41;61.25;102010.06;1820798;78;21100;-67
2022/12/05 11:44:36;;;;;;;45.60;13.80;;;;;;;0.83;57.67;102008.86;1820713;78;21095;-64
2022/12/05 11:47:37;;;;;;;31.15;10.35;;;;;;;1.05;57.84;102000.91;1821109;78;21080;-67
2022/12/05 11:50:46;;;;;;;45.55;17.37;;;;;;;1.23;56.89;101994.55;1820886;78;21807;-66
2022/12/05 11:53:22;;;;;;;17.73;9.13;;;;;;;1.75;55.57;101984.83;1821179;78;21071;-66
2022/12/05 11:56:19;;;;;;;17.73;8.45;;;;;;;2.22;54.27;101977.06;1820855;78;21179;-66
2022/12/05 11:59:14;;;;;;;36.58;13.15;;;;;;;2.79;54.74;101972.02;1820895;78;21060;-66
2022/12/05 12:02:07;;;;;;;34.88;13.95;;;;;;;3.34;53.50;101963.31;1779029;80;21076;-68
2022/12/05 12:05:11;;;;;;;67.82;21.97;;;;;;;3.95;49.58;101965.87;1763486;80;21126;-66
2022/12/05 12:07:43;;;;;;;25.12;11.12;;;;;;;4.37;49.23;101954.50;1820955;78;21025;-65
2022/12/05 12:10:52;;;;;;;21.40;10.25;;;;;;;3.90;49.41;101953.17;1820876;78;21575;-65
2022/12/05 12:13:37;;;;;;;28.52;12.47;;;;;;;4.03;49.11;101950.83;1820043;78;21072;-66
2022/12/05 12:16:28;;;;;;;42.05;18.15;;;;;;;4.19;45.61;101932.88;1788898;80;21580;-67
2022/12/05 12:19:21;;;;;;;44.25;19.95;;;;;;;4.19;45.61;101932.88;1788772;79;21071;-66
2022/12/05 12:22:14;;;;;;;18.98;9.38;;;;;;;3.92;46.36;101934.97;1767150;80;21066;-66
2022/12/05 12:25:17;;;;;;;22.60;8.68;;;;;;;3.84;46.09;101927.41;1788978;79;21106;-66
2022/12/05 12:27:55;;;;;;;17.48;8.45;;;;;;;3.71;45.37;101923.70;1788464;80;22010;-65
2022/12/05 12:45:01;;;;;;;25.63;10.20;;;;;;;3.78;45.61;101921.67;1888107;76;22665;-65
2022/12/05 12:48:17;;;;;;;17.98;8.23;;;;;;;3.91;45.81;101922.37;1859185;77;20950;-65
2022/12/05 12:50:44;;;;;;;31.55;11.22;;;;;;;3.51;45.08;101922.86;1859118;77;22631;-65
2022/12/05 12:53:26;;;;;;;36.55;15.30;;;;;;;3.46;45.24;101915.81;1858901;77;21040;-66
2022/12/05 12:56:04;;;;;;;24.67;9.58;;;;;;;3.11;45.70;101928.95;1859239;77;21028;-66
2022/12/05 12:59:06;;;;;;;17.75;8.60;;;;;;;3.43;45.57;101920.54;1858712;77;21543;-66
2022/12/05 13:01:52;;;;;;;21.12;10.00;;;;;;;3.14;45.77;101922.08;1857400;77;20961;-66
2022/12/05 13:04:32;;;;;;;65.20;24.60;;;;;;;2.90;45.98;101925.45;1858663;77;21178;-66
2022/12/05 13:07:12;;;;;;;27.15;10.95;;;;;;;2.72;47.04;101924.16;1858658;77;20921;-66
2022/12/05 13:09:48;;;;;;;30.70;11.60;;;;;;;2.55;46.75;101916.78;1859022;77;20941;-66
2022/12/05 13:12:25;;;;;;;25.85;10.28;;;;;;;2.36;46.85;101915.45;1859145;77;21024;-66
2022/12/05 13:15:06;;;;;;;25.37;11.78;;;;;;;1.64;48.05;101917.02;1855752;77;21053;-66
2022/12/05 13:17:33;;;;;;;24.45;9.80;;;;;;;1.08;49.32;101911.91;1858507;77;21132;-66
2022/12/05 13:20:02;;;;;;;29.15;10.32;;;;;;;0.66;50.32;101919.24;1858095;77;21027;-65
2022/12/05 13:22:28;;;;;;;29.12;10.63;;;;;;;0.34;51.17;101919.06;1859199;77;21085;-66
2022/12/05 13:24:55;;;;;;;25.52;10.53;;;;;;;-0.06;52.19;101920.30;1858960;77;21030;-66
2022/12/05 13:27:30;;;;;;;24.07;9.88;;;;;;;-0.80;53.96;101929.27;1858766;77;21061;-65
2022/12/05 13:30:00;;;;;;;24.75;9.33;;;;;;;-0.91;55.13;101925.37;1857901;77;21601;-66
2022/12/05 13:32:31;;;;;;;34.92;15.10;;;;;;;-1.42;56.10;101925.09;1858824;77;21227;-66
2022/12/05 13:43:42;;;;;;;24.03;11.63;;;;;;;-1.93;59.32;101908.37;1827469;78;22134;-66